コロンボ の空港の天気 - METARとTAF

バンダラナイケ国際空港 ( VCBI / CMB ) - スリランカ コロンボ
飛行場実況気象(Metar)
観測時間01/20 09:40 IST (01/20 04:10 UTC)
風向・風速北北東 6m/s
視程7000m
天気現象
全天の4割程度の雲 雲底高度 2440m
気温25℃
湿度74%
気圧1013hPa
METARVCBI 200410Z 03011KT 7000 SCT080 25/20 Q1013 NOSIG
過去の天気等 Google飛行場航空写真 Wunderground天気予報

過去48時間のMETAR

飛行場予報(TAF)
発表時間: 1/20 03:10 IST (1/19 21:40 UTC)
予報対象時間: 20日5時 IST ~ 21日11時 IST
風向・風速北北東 6m/s
視程10km以上
少しの雲 雲底高度 550m
20日5時 IST ~ 20日7時 IST に 確率 40% で一時的に
視程6,000m
TAF COR VCBI 192140Z 2000/2106 03012KT 9999 FEW018 TX31/2008Z TN21/2100Z
PROB40 TEMPO 2000/2002 6000